Time;durP1;ratioP1;P1;durP2;ratioP2;P2;SDS_P1;SDS_P2;PMS_P1;PMS_P2;Temp;Humidity;BMP_temperature;BMP_pressure;BME280_temperature;BME280_humidity;BME280_pressure;Samples;Min_cycle;Max_cycle;Signal;HPM_P1;HPM_P2
2021/03/21 00:00:42;;;;;;;24.83;10.70;;;;;;;-1.52;67.50;100055.63;5096739;28;20058;-54
2021/03/21 00:03:15;;;;;;;25.50;11.55;;;;;;;-1.50;67.10;100051.38;5096764;28;20048;-54
2021/03/21 00:05:40;;;;;;;25.13;11.27;;;;;;;-1.59;67.28;100054.59;5095575;28;20429;-54
2021/03/21 00:08:10;;;;;;;23.88;10.60;;;;;;;-1.51;67.14;100053.09;5096306;28;20066;-54
2021/03/21 00:10:35;;;;;;;29.48;10.30;;;;;;;-1.55;67.23;100041.00;5079480;28;20043;-54
2021/03/21 00:13:01;;;;;;;24.52;10.40;;;;;;;-1.59;67.38;100041.75;5096578;28;20044;-54
2021/03/21 00:15:27;;;;;;;23.85;11.45;;;;;;;-1.62;67.29;100041.66;5095736;28;20083;-54
2021/03/21 00:17:54;;;;;;;24.20;9.45;;;;;;;-1.63;67.54;100044.19;5096532;28;20047;-54
2021/03/21 00:20:23;;;;;;;22.55;10.00;;;;;;;-1.55;67.59;100040.13;5096473;28;20426;-54
2021/03/21 00:22:49;;;;;;;22.17;10.43;;;;;;;-1.58;67.44;100027.22;5078899;28;20036;-54
2021/03/21 00:25:16;;;;;;;25.42;11.15;;;;;;;-1.53;67.35;100028.19;5096418;28;20369;-54
2021/03/21 00:27:42;;;;;;;21.90;10.23;;;;;;;-1.42;66.58;100016.50;5096090;28;20407;-54
2021/03/21 00:30:09;;;;;;;22.45;9.57;;;;;;;-1.48;66.83;100006.94;5096360;28;20052;-54
2021/03/21 00:32:35;;;;;;;20.83;9.98;;;;;;;-1.34;66.18;100004.72;5096091;28;20052;-54
2021/03/21 00:35:00;;;;;;;23.83;10.13;;;;;;;-1.39;66.49;100002.88;5096306;28;20054;-54
2021/03/21 00:37:26;;;;;;;21.52;9.75;;;;;;;-1.38;65.98;99999.47;5096627;28;20037;-54
2021/03/21 00:39:52;;;;;;;23.75;10.13;;;;;;;-1.49;66.35;99994.06;5097470;28;20044;-54
2021/03/21 00:42:18;;;;;;;27.33;10.25;;;;;;;-1.41;66.05;99992.53;5100410;28;20040;-54
2021/03/21 00:44:43;;;;;;;22.85;9.52;;;;;;;-1.32;65.65;99989.34;5100211;28;20044;-54
2021/03/21 00:47:09;;;;;;;17.80;9.10;;;;;;;-1.26;65.32;99984.38;5100144;28;20036;-54
2021/03/21 00:49:35;;;;;;;23.50;8.73;;;;;;;-1.26;64.81;99974.09;5100405;28;20036;-54
2021/03/21 00:52:01;;;;;;;19.23;8.65;;;;;;;-1.34;65.13;99967.88;5099454;28;20058;-54
2021/03/21 00:54:27;;;;;;;23.40;8.23;;;;;;;-1.38;64.95;99966.06;5100300;28;20340;-54
2021/03/21 00:56:53;;;;;;;20.20;8.05;;;;;;;-1.32;64.66;99961.94;5100231;28;20434;-54
2021/03/21 00:59:18;;;;;;;19.10;7.68;;;;;;;-1.28;64.57;99957.75;5100423;28;20058;-54
2021/03/21 01:01:45;;;;;;;24.05;8.27;;;;;;;-1.19;63.92;99950.28;5100040;28;20060;-54
2021/03/21 01:04:12;;;;;;;27.63;9.73;;;;;;;-1.11;63.10;99938.44;5099828;28;20398;-54
2021/03/21 01:06:38;;;;;;;21.17;9.73;;;;;;;-1.20;63.20;99927.97;5099765;28;20452;-54
2021/03/21 01:09:07;;;;;;;23.15;8.70;;;;;;;-1.18;63.34;99928.88;5098741;28;20052;-54
2021/03/21 01:11:34;;;;;;;21.70;9.63;;;;;;;-1.18;63.46;99928.88;5098850;28;20059;-54
2021/03/21 01:14:00;;;;;;;19.23;8.85;;;;;;;-1.18;63.76;99919.44;5099666;28;20039;-54
2021/03/21 01:16:28;;;;;;;23.13;10.38;;;;;;;-1.24;63.88;99910.72;5099576;28;20105;-54
2021/03/21 01:18:54;;;;;;;19.70;9.50;;;;;;;-1.23;64.09;99899.63;5099459;28;20048;-54
2021/03/21 01:21:22;;;;;;;27.95;8.93;;;;;;;-1.18;63.61;99896.31;5099378;28;20062;-54
2021/03/21 01:23:48;;;;;;;19.58;9.23;;;;;;;-1.18;63.84;99892.88;5081946;28;20434;-54
2021/03/21 01:26:16;;;;;;;17.80;8.50;;;;;;;-1.09;63.64;99879.38;5098965;28;20125;-54
2021/03/21 01:28:41;;;;;;;21.08;8.07;;;;;;;-1.05;63.58;99871.75;5099929;28;20036;-54
2021/03/21 01:31:12;;;;;;;19.05;8.77;;;;;;;-1.07;63.49;99865.72;5098749;28;20036;-54
2021/03/21 01:33:37;;;;;;;18.65;8.23;;;;;;;-1.10;63.69;99868.22;5098892;28;20044;-54
2021/03/21 01:36:12;;;;;;;19.33;8.02;;;;;;;-1.04;63.41;99859.75;5098624;28;20100;-54
2021/03/21 01:38:38;;;;;;;19.55;8.43;;;;;;;-1.12;63.75;99859.59;5098598;28;20048;-54
2021/03/21 01:41:04;;;;;;;22.92;8.52;;;;;;;-1.07;63.67;99849.41;5099086;28;20422;-54
2021/03/21 01:43:33;;;;;;;20.38;8.57;;;;;;;-0.91;63.21;99848.94;5098489;28;20043;-54
2021/03/21 01:45:58;;;;;;;16.65;8.20;;;;;;;-1.04;63.48;99844.34;5099329;28;20056;-54
2021/03/21 01:48:50;;;;;;;22.00;8.77;;;;;;;-1.13;64.01;99846.72;5098985;28;20394;-54
2021/03/21 01:51:23;;;;;;;16.13;7.72;;;;;;;-1.13;64.31;99837.31;5098369;28;20040;-54
2021/03/21 01:53:51;;;;;;;15.50;7.50;;;;;;;-0.99;63.58;99820.47;5098131;28;20046;-54
2021/03/21 01:56:16;;;;;;;19.77;9.00;;;;;;;-1.01;63.50;99810.97;5081495;28;20055;-54
2021/03/21 01:58:43;;;;;;;22.05;9.55;;;;;;;-1.11;64.11;99804.78;5098230;28;20048;-54
2021/03/21 02:01:19;;;;;;;20.02;8.88;;;;;;;-1.04;63.82;99796.38;5099254;28;20062;-54
2021/03/21 02:03:45;;;;;;;19.10;7.85;;;;;;;-1.06;63.62;99794.59;5099821;28;20052;-54
2021/03/21 02:06:29;;;;;;;22.10;9.40;;;;;;;-1.16;64.21;99793.53;5099237;28;20372;-54
2021/03/21 02:09:17;;;;;;;17.60;7.60;;;;;;;-1.22;64.53;99778.84;5097603;28;20059;-54
2021/03/21 02:11:50;;;;;;;16.05;8.05;;;;;;;-1.11;64.45;99763.63;5099340;28;20078;-54
2021/03/21 02:14:46;;;;;;;18.88;7.40;;;;;;;-1.11;64.38;99757.63;5097801;28;20097;-54
2021/03/21 02:17:47;;;;;;;16.98;7.68;;;;;;;-1.15;64.32;99766.13;5061702;28;20328;-54
2021/03/21 02:20:35;;;;;;;19.65;8.57;;;;;;;-1.07;63.89;99754.28;5098377;28;20044;-54
2021/03/21 02:23:11;;;;;;;18.08;8.20;;;;;;;-1.08;63.97;99753.41;5098469;28;20090;-54
2021/03/21 02:25:56;;;;;;;13.57;7.35;;;;;;;-1.08;64.06;99742.28;5080930;28;20058;-54
2021/03/21 02:28:45;;;;;;;17.27;7.55;;;;;;;-1.01;63.80;99742.44;5097748;28;20117;-54
2021/03/21 02:31:26;;;;;;;20.52;7.60;;;;;;;-1.17;64.58;99740.38;5082727;28;20032;-54
2021/03/21 02:33:56;;;;;;;17.05;7.85;;;;;;;-1.04;63.82;99731.22;5081777;28;20052;-54
2021/03/21 02:36:24;;;;;;;19.75;8.10;;;;;;;-0.91;63.54;99716.91;5080699;28;20055;-54
2021/03/21 02:39:09;;;;;;;16.15;7.68;;;;;;;-0.93;63.62;99716.03;5097429;28;20047;-54
2021/03/21 02:41:40;;;;;;;20.83;7.40;;;;;;;-0.97;63.76;99712.53;5082433;28;20373;-54
2021/03/21 02:44:14;;;;;;;12.85;7.95;;;;;;;-0.98;63.93;99714.19;5080645;28;20450;-54
2021/03/21 02:46:42;;;;;;;17.65;8.35;;;;;;;-0.99;64.18;99712.47;5081335;28;20052;-54
2021/03/21 02:49:19;;;;;;;18.48;8.45;;;;;;;-0.93;63.75;99708.31;5080609;28;20048;-54
2021/03/21 02:51:48;;;;;;;19.50;8.55;;;;;;;-0.87;63.42;99701.56;5096884;28;20043;-54
2021/03/21 02:54:16;;;;;;;18.83;8.52;;;;;;;-0.96;63.89;99703.97;5080539;28;20086;-54
2021/03/21 02:56:43;;;;;;;15.90;7.20;;;;;;;-1.02;64.07;99689.28;5080469;28;20048;-54
2021/03/21 02:59:17;;;;;;;12.27;6.25;;;;;;;-1.02;64.20;99684.13;5096786;28;20051;-54
2021/03/21 03:02:07;;;;;;;13.63;7.32;;;;;;;-1.00;64.39;99677.31;5063906;28;20043;-54
2021/03/21 03:04:36;;;;;;;13.57;6.53;;;;;;;-0.95;64.18;99675.69;5089186;28;20420;-54
2021/03/21 03:07:12;;;;;;;17.90;7.60;;;;;;;-0.98;63.87;99669.63;5096432;28;20087;-54
2021/03/21 03:09:42;;;;;;;12.52;7.30;;;;;;;-0.89;63.82;99656.09;5096924;28;20453;-54
2021/03/21 03:12:20;;;;;;;15.18;8.23;;;;;;;-0.91;63.98;99647.47;5080094;28;20044;-54
2021/03/21 03:14:47;;;;;;;14.80;8.32;;;;;;;-1.10;65.01;99647.13;5096783;28;20086;-54
2021/03/21 03:17:20;;;;;;;16.40;6.72;;;;;;;-0.97;64.50;99643.97;5097330;28;20050;-54
2021/03/21 03:19:58;;;;;;;15.50;6.95;;;;;;;-0.91;64.16;99643.22;5096660;28;20052;-54
2021/03/21 03:22:27;;;;;;;14.57;7.10;;;;;;;-0.96;64.50;99631.97;5064013;28;20358;-54
2021/03/21 03:25:26;;;;;;;12.90;6.13;;;;;;;-1.00;64.71;99631.03;5096353;28;20060;-54
2021/03/21 03:28:00;;;;;;;12.98;5.65;;;;;;;-1.01;64.99;99634.47;5063827;28;20051;-54
2021/03/21 03:30:34;;;;;;;13.93;6.65;;;;;;;-0.90;64.58;99631.22;5096424;28;20047;-54
2021/03/21 03:33:00;;;;;;;13.13;6.95;;;;;;;-0.92;65.02;99623.47;5079901;28;20044;-54
2021/03/21 03:35:26;;;;;;;12.02;6.75;;;;;;;-0.93;64.81;99626.03;5097148;28;20445;-54
2021/03/21 03:37:51;;;;;;;11.45;6.13;;;;;;;-0.87;64.75;99621.84;5097236;28;20372;-54
2021/03/21 03:40:18;;;;;;;12.77;6.88;;;;;;;-0.83;64.88;99612.47;5097135;28;20082;-54
2021/03/21 03:43:08;;;;;;;14.50;6.70;;;;;;;-0.86;65.00;99597.84;5079798;28;20044;-54
2021/03/21 03:45:37;;;;;;;12.80;6.72;;;;;;;-0.72;64.57;99586.09;5097135;28;20082;-54
2021/03/21 03:48:09;;;;;;;11.43;6.00;;;;;;;-0.79;64.86;99593.69;5096140;28;20048;-54
2021/03/21 03:50:50;;;;;;;14.98;6.43;;;;;;;-0.78;64.90;99595.41;5079312;28;20058;-54
2021/03/21 03:53:37;;;;;;;16.65;6.13;;;;;;;-0.81;65.10;99585.09;5096605;28;20044;-54
2021/03/21 03:56:08;;;;;;;14.10;5.72;;;;;;;-0.71;65.04;99585.28;5095897;28;20040;-54
2021/03/21 03:59:07;;;;;;;11.88;5.47;;;;;;;-0.77;64.77;99572.31;5079170;28;20464;-54
2021/03/21 04:01:42;;;;;;;12.63;6.20;;;;;;;-0.75;65.05;99573.22;5096587;28;20047;-54
2021/03/21 04:04:19;;;;;;;13.43;5.95;;;;;;;-0.64;64.81;99555.38;5079151;28;20043;-54
2021/03/21 04:06:59;;;;;;;11.13;5.57;;;;;;;-0.65;64.63;99542.47;5078847;28;20071;-53
2021/03/21 04:09:36;;;;;;;13.85;6.68;;;;;;;-0.53;64.23;99548.66;5079082;28;20056;-54
2021/03/21 04:12:10;;;;;;;14.73;7.28;;;;;;;-0.66;64.65;99551.03;5079251;28;20044;-54
2021/03/21 04:14:41;;;;;;;13.63;5.65;;;;;;;-0.56;64.48;99548.63;5078510;28;20353;-54
2021/03/21 04:17:17;;;;;;;12.35;5.50;;;;;;;-0.63;64.92;99538.22;5096898;28;20044;-54
2021/03/21 04:19:51;;;;;;;11.18;6.43;;;;;;;-0.56;64.87;99535.75;5095652;28;20085;-54
2021/03/21 04:22:21;;;;;;;11.70;5.97;;;;;;;-0.63;64.85;99533.94;5095276;28;20354;-54
2021/03/21 04:24:56;;;;;;;14.73;7.10;;;;;;;-0.59;64.80;99529.69;5095590;28;20108;-54
2021/03/21 04:27:42;;;;;;;17.30;6.05;;;;;;;-0.52;64.79;99529.84;5079498;28;20036;-55
2021/03/21 04:30:16;;;;;;;12.50;6.47;;;;;;;-0.64;65.48;99509.06;5078464;28;20047;-54
2021/03/21 04:32:46;;;;;;;13.57;6.35;;;;;;;-0.60;65.54;99515.97;5079060;28;20044;-54
2021/03/21 04:35:21;;;;;;;13.43;6.03;;;;;;;-0.55;65.46;99510.91;5096628;28;20434;-54
2021/03/21 04:37:51;;;;;;;10.52;5.90;;;;;;;-0.55;65.40;99504.06;5095360;28;20044;-55
2021/03/21 04:40:16;;;;;;;11.63;5.28;;;;;;;-0.42;65.03;99505.09;5078857;28;20047;-54
2021/03/21 04:42:53;;;;;;;8.30;5.10;;;;;;;-0.35;64.83;99503.47;5078822;28;20101;-54
2021/03/21 04:45:21;;;;;;;11.40;5.63;;;;;;;-0.46;65.28;99500.72;5079910;28;20051;-54
2021/03/21 04:47:59;;;;;;;11.23;6.20;;;;;;;-0.41;65.03;99493.09;5078628;28;20435;-54
2021/03/21 04:50:25;;;;;;;11.27;5.60;;;;;;;-0.50;65.26;99486.09;5079455;28;20048;-54
2021/03/21 04:52:55;;;;;;;9.88;5.40;;;;;;;-0.45;65.69;99483.59;5094998;28;20055;-55
2021/03/21 04:55:24;;;;;;;11.90;5.97;;;;;;;-0.43;65.68;99484.47;5078197;28;20488;-54
2021/03/21 04:57:50;;;;;;;13.60;5.97;;;;;;;-0.42;65.98;99486.19;5078499;28;20040;-55
2021/03/21 05:00:28;;;;;;;10.80;6.00;;;;;;;-0.40;65.98;99477.66;5096335;28;20044;-54
2021/03/21 05:03:00;;;;;;;12.65;6.53;;;;;;;-0.31;65.55;99476.94;5061967;28;20048;-54
2021/03/21 05:05:29;;;;;;;12.43;6.53;;;;;;;-0.36;65.93;99479.41;5095074;28;20350;-54
2021/03/21 05:08:01;;;;;;;10.68;5.95;;;;;;;-0.38;66.13;99472.56;5078365;28;20060;-54
2021/03/21 05:10:47;;;;;;;11.48;6.55;;;;;;;-0.28;65.37;99462.38;5096346;28;20044;-55
2021/03/21 05:13:35;;;;;;;9.40;5.20;;;;;;;-0.37;65.91;99454.53;5079452;28;20055;-54
2021/03/21 05:16:09;;;;;;;12.43;5.32;;;;;;;-0.38;66.14;99462.25;5063440;28;20051;-54
2021/03/21 05:19:06;;;;;;;11.27;5.88;;;;;;;-0.30;65.59;99460.63;5079636;28;20070;-54
2021/03/21 05:22:02;;;;;;;9.85;5.60;;;;;;;-0.35;65.89;99447.72;5095861;28;20104;-54
2021/03/21 05:24:33;;;;;;;11.85;5.60;;;;;;;-0.29;65.80;99452.94;5082866;28;20327;-54
2021/03/21 05:27:03;;;;;;;11.20;5.47;;;;;;;-0.22;65.70;99451.31;5081735;28;20326;-54
2021/03/21 05:29:46;;;;;;;12.00;5.65;;;;;;;-0.23;65.74;99441.84;5082113;28;20062;-54
2021/03/21 05:32:13;;;;;;;11.20;5.80;;;;;;;-0.24;65.91;99435.84;5081681;28;20055;-54
2021/03/21 05:34:39;;;;;;;11.95;6.22;;;;;;;-0.19;65.68;99429.91;5098690;28;20052;-55
2021/03/21 05:37:07;;;;;;;10.82;6.10;;;;;;;-0.15;65.80;99424.78;5099513;28;20372;-54
2021/03/21 05:39:38;;;;;;;10.93;6.18;;;;;;;-0.02;65.17;99425.81;5098295;28;20513;-54
2021/03/21 05:42:25;;;;;;;13.10;6.50;;;;;;;0.07;64.64;99428.47;5098550;28;20048;-54
2021/03/21 05:45:05;;;;;;;11.95;6.60;;;;;;;-0.05;65.18;99421.47;5099460;28;20350;-54
2021/03/21 05:47:50;;;;;;;15.50;7.85;;;;;;;-0.09;65.68;99430.00;5098466;28;20047;-54
2021/03/21 05:50:34;;;;;;;10.63;6.45;;;;;;;-0.03;65.18;99414.66;5099244;28;20136;-55
2021/03/21 05:53:29;;;;;;;11.18;6.68;;;;;;;-0.02;65.18;99418.94;5099253;28;20052;-54
2021/03/21 05:56:22;;;;;;;11.10;6.32;;;;;;;0.03;65.34;99407.81;5098600;28;20044;-54
2021/03/21 05:58:57;;;;;;;13.60;6.95;;;;;;;-0.02;65.62;99423.22;5098309;28;20059;-54
2021/03/21 06:01:40;;;;;;;13.32;6.70;;;;;;;0.01;66.01;99417.25;5099022;28;20055;-55
2021/03/21 06:04:11;;;;;;;12.18;5.63;;;;;;;0.05;65.98;99411.28;5099007;28;20044;-55
2021/03/21 06:07:03;;;;;;;12.77;6.20;;;;;;;0.13;65.77;99413.09;5097844;28;20445;-54
2021/03/21 06:09:50;;;;;;;17.13;8.63;;;;;;;0.13;65.86;99413.09;5097839;28;20053;-43
2021/03/21 06:12:49;;;;;;;17.50;9.75;;;;;;;0.14;65.79;99413.97;5082959;28;20132;-43
2021/03/21 06:15:33;;;;;;;30.40;14.82;;;;;;;0.05;66.36;99414.72;5097682;28;20044;-43
2021/03/21 06:18:25;;;;;;;19.27;9.25;;;;;;;0.09;66.78;99405.31;5097924;28;20147;-43
2021/03/21 06:21:16;;;;;;;12.73;7.30;;;;;;;0.26;66.17;99401.22;5098458;28;20060;-43
2021/03/21 06:24:04;;;;;;;16.85;8.20;;;;;;;0.19;66.28;99384.81;5074928;28;20453;-43
2021/03/21 06:26:36;;;;;;;11.88;7.82;;;;;;;0.15;66.83;99390.78;5116713;27;20518;-43
2021/03/21 06:29:26;;;;;;;13.05;7.97;;;;;;;0.23;66.77;99385.72;5116230;28;20048;-43
2021/03/21 06:32:15;;;;;;;14.35;7.75;;;;;;;0.22;67.12;99382.25;5116199;28;20109;-43
2021/03/21 06:35:12;;;;;;;10.77;7.18;;;;;;;0.35;66.41;99380.66;5116110;28;20058;-43
2021/03/21 06:37:58;;;;;;;14.02;7.60;;;;;;;0.25;66.85;99363.41;5114830;28;20048;-43
2021/03/21 06:40:42;;;;;;;10.93;7.05;;;;;;;0.33;66.63;99358.34;5100761;28;20449;-43
2021/03/21 06:43:53;;;;;;;12.90;5.35;;;;;;;0.34;66.55;99355.75;5099278;28;20163;-43
2021/03/21 06:46:37;;;;;;;11.65;6.63;;;;;;;0.40;66.60;99353.25;5115721;28;20377;-43
2021/03/21 06:49:43;;;;;;;11.20;7.00;;;;;;;0.52;66.26;99355.06;5117417;28;20036;-43
2021/03/21 06:52:39;;;;;;;12.77;6.63;;;;;;;0.41;66.54;99351.53;5118510;28;20039;-43
2021/03/21 06:55:10;;;;;;;10.48;7.20;;;;;;;0.53;66.36;99356.78;5118424;28;20055;-43
2021/03/21 06:57:51;;;;;;;9.77;6.43;;;;;;;0.54;66.25;99348.19;5118150;28;20119;-43
2021/03/21 07:00:38;;;;;;;12.93;7.43;;;;;;;0.55;66.59;99344.75;5118013;28;20055;-43
2021/03/21 07:03:19;;;;;;;11.82;7.30;;;;;;;0.63;66.57;99345.69;5118212;28;20044;-43
2021/03/21 07:06:04;;;;;;;12.88;7.53;;;;;;;0.58;66.25;99342.19;5118267;28;20346;-54
2021/03/21 07:09:01;;;;;;;11.68;7.13;;;;;;;0.63;66.50;99337.97;5117882;28;20056;-54
2021/03/21 07:12:05;;;;;;;17.35;7.80;;;;;;;0.66;66.37;99326.81;5117212;28;20373;-54
2021/03/21 07:14:40;;;;;;;13.73;8.82;;;;;;;0.63;66.96;99332.81;5118101;28;20035;-54
2021/03/21 07:17:26;;;;;;;15.65;7.57;;;;;;;0.62;67.15;99313.03;5117056;28;20047;-54
2021/03/21 07:20:15;;;;;;;11.30;7.55;;;;;;;0.72;66.94;99319.13;5096621;28;20372;-54
2021/03/21 07:23:10;;;;;;;15.32;8.25;;;;;;;0.80;66.45;99309.72;5117138;28;20043;-54
2021/03/21 07:25:45;;;;;;;13.40;8.57;;;;;;;0.72;66.84;99308.81;5116941;28;20062;-54
2021/03/21 07:28:37;;;;;;;14.40;7.63;;;;;;;0.76;66.38;99310.56;5117511;28;20059;-54
2021/03/21 07:31:11;;;;;;;14.00;7.05;;;;;;;0.79;66.65;99300.25;5093537;28;20352;-55
2021/03/21 07:33:48;;;;;;;12.88;7.70;;;;;;;0.86;66.38;99302.03;5117730;28;20062;-54
2021/03/21 07:36:30;;;;;;;12.65;7.68;;;;;;;0.89;66.38;99296.03;5117644;28;20069;-54
2021/03/21 07:39:19;;;;;;;14.65;7.57;;;;;;;0.95;66.48;99301.22;5117578;28;20047;-54
2021/03/21 07:42:02;;;;;;;13.65;7.70;;;;;;;0.91;66.53;99289.13;5116259;28;20452;-54
2021/03/21 07:45:11;;;;;;;11.80;7.55;;;;;;;0.82;66.91;99295.13;5116725;28;20051;-55
2021/03/21 07:48:11;;;;;;;12.95;7.95;;;;;;;0.89;66.72;99286.56;5074887;28;20132;-54
2021/03/21 07:50:42;;;;;;;12.15;7.78;;;;;;;0.95;66.82;99280.59;5058867;28;20125;-54
2021/03/21 07:53:34;;;;;;;13.75;7.47;;;;;;;1.05;66.53;99281.50;5106818;28;20110;-54
2021/03/21 07:56:02;;;;;;;15.18;8.32;;;;;;;0.98;67.21;99277.16;5093141;28;20429;-54
2021/03/21 07:58:38;;;;;;;16.48;9.63;;;;;;;1.00;67.42;99280.59;5116065;28;20077;-54
2021/03/21 08:01:04;;;;;;;20.83;11.48;;;;;;;1.07;67.51;99277.19;5116108;28;20039;-54
2021/03/21 08:03:41;;;;;;;12.02;8.23;;;;;;;1.21;66.86;99267.81;5116195;28;20058;-54
2021/03/21 08:06:16;;;;;;;16.95;9.48;;;;;;;1.21;67.00;99267.81;5116792;28;20054;-54
2021/03/21 08:08:45;;;;;;;14.18;8.52;;;;;;;1.34;66.68;99253.25;5099024;28;20047;-54
2021/03/21 08:11:11;;;;;;;15.43;9.57;;;;;;;1.35;66.54;99260.09;5116449;28;20046;-54
2021/03/21 08:13:41;;;;;;;16.60;10.98;;;;;;;1.30;66.60;99249.78;5099169;28;20044;-54
2021/03/21 08:16:18;;;;;;;17.35;12.27;;;;;;;1.33;66.82;99251.50;5117000;28;20043;-54
2021/03/21 08:18:46;;;;;;;15.57;9.60;;;;;;;1.32;66.65;99247.19;5116106;28;20047;-54
2021/03/21 08:21:31;;;;;;;19.13;10.63;;;;;;;1.45;66.34;99251.53;5115997;28;20131;-54
2021/03/21 08:23:59;;;;;;;18.13;10.57;;;;;;;1.55;65.91;99245.53;5117197;28;20043;-54
2021/03/21 08:26:29;;;;;;;16.85;9.57;;;;;;;1.47;66.19;99244.66;5115931;28;20051;-54
2021/03/21 08:29:03;;;;;;;18.27;10.85;;;;;;;1.44;66.62;99249.81;5115594;28;20047;-54
2021/03/21 08:32:00;;;;;;;17.95;9.25;;;;;;;1.43;66.70;99234.31;5116691;28;20112;-54
2021/03/21 08:34:43;;;;;;;24.27;12.65;;;;;;;1.48;66.47;99236.06;5116680;28;20047;-54
2021/03/21 08:37:30;;;;;;;19.60;11.82;;;;;;;1.37;66.88;99237.75;5115892;28;20501;-54
2021/03/21 08:39:56;;;;;;;14.75;9.98;;;;;;;1.29;67.31;99229.13;5117018;28;20040;-54
2021/03/21 08:42:35;;;;;;;20.88;13.63;;;;;;;1.51;66.61;99219.72;5116269;28;20104;-55
2021/03/21 08:45:29;;;;;;;23.77;12.43;;;;;;;1.34;67.09;99217.09;5115530;28;20096;-54
2021/03/21 08:48:21;;;;;;;18.02;11.88;;;;;;;1.36;67.75;99220.53;5116908;28;20058;-54
2021/03/21 08:50:53;;;;;;;21.00;11.30;;;;;;;1.38;68.15;99222.28;5110095;28;20059;-55
2021/03/21 08:53:27;;;;;;;30.97;21.70;;;;;;;1.58;67.73;99214.56;5115518;28;20059;-55
2021/03/21 08:56:17;;;;;;;17.55;11.23;;;;;;;1.62;67.54;99213.69;5116535;28;20288;-56
2021/03/21 08:58:44;;;;;;;16.80;10.60;;;;;;;1.60;68.37;99212.00;5110074;28;20055;-56
2021/03/21 09:01:24;;;;;;;19.75;13.70;;;;;;;1.70;68.19;99202.56;5117262;28;20043;-56
2021/03/21 09:03:50;;;;;;;20.05;10.95;;;;;;;1.66;68.59;99195.63;5119757;28;20135;-56
2021/03/21 09:06:31;;;;;;;30.50;13.25;;;;;;;1.68;68.23;99202.53;5119718;28;20043;-56
2021/03/21 09:09:23;;;;;;;24.52;12.85;;;;;;;1.76;67.83;99190.50;5120098;28;20047;-53
2021/03/21 09:11:54;;;;;;;23.08;10.88;;;;;;;1.81;68.17;99199.09;5120480;28;20047;-53
2021/03/21 09:14:24;;;;;;;20.42;11.18;;;;;;;1.82;68.57;99194.78;5120659;28;20092;-53
2021/03/21 09:17:03;;;;;;;19.77;11.25;;;;;;;1.97;68.52;99193.94;5120356;28;20058;-53
2021/03/21 09:19:32;;;;;;;22.65;11.32;;;;;;;1.96;69.34;99206.00;5119774;28;20406;-53
2021/03/21 09:21:58;;;;;;;20.85;11.43;;;;;;;1.95;70.35;99198.25;5085536;28;20047;-53
2021/03/21 09:24:27;;;;;;;19.58;11.65;;;;;;;2.04;70.47;99195.66;5120493;28;20314;-53
2021/03/21 09:26:53;;;;;;;22.20;14.57;;;;;;;2.11;70.55;99197.38;5119614;28;20040;-53
2021/03/21 09:29:23;;;;;;;19.92;11.43;;;;;;;2.12;70.98;99198.25;5119209;28;20044;-53
2021/03/21 09:31:52;;;;;;;21.27;12.10;;;;;;;2.20;71.34;99186.19;5119159;28;20051;-53
2021/03/21 09:34:27;;;;;;;22.83;11.52;;;;;;;2.29;71.10;99194.78;5119133;28;20048;-53
2021/03/21 09:36:59;;;;;;;21.05;11.75;;;;;;;2.19;71.90;99189.63;5120304;28;20486;-53
2021/03/21 09:39:25;;;;;;;24.95;13.20;;;;;;;2.26;72.23;99194.78;5118751;28;20048;-53
2021/03/21 09:41:52;;;;;;;36.58;20.65;;;;;;;2.38;71.78;99186.16;5102265;28;20039;-53
2021/03/21 09:44:42;;;;;;;33.67;21.95;;;;;;;2.50;70.58;99186.13;5118961;28;20050;-54
2021/03/21 09:47:28;;;;;;;15.52;11.20;;;;;;;2.45;71.04;99174.09;5120130;28;20119;-54
2021/03/21 09:50:15;;;;;;;21.25;15.18;;;;;;;2.50;70.90;99170.63;5119521;28;20044;-54
2021/03/21 09:52:41;;;;;;;31.90;18.45;;;;;;;2.59;70.49;99164.53;5119464;28;20040;-54
2021/03/21 09:55:38;;;;;;;24.73;16.55;;;;;;;2.49;71.25;99155.09;5119594;28;20112;-54
2021/03/21 09:58:34;;;;;;;18.98;11.50;;;;;;;2.58;71.11;99160.25;5119911;28;20074;-53
2021/03/21 10:01:05;;;;;;;21.98;16.25;;;;;;;2.50;71.83;99152.53;5119580;28;20444;-54
2021/03/21 10:03:33;;;;;;;22.35;13.70;;;;;;;2.53;71.79;99155.06;5118283;28;20039;-54
2021/03/21 10:06:08;;;;;;;20.90;11.43;;;;;;;2.59;71.72;99159.38;5118443;28;20040;-53
2021/03/21 10:08:50;;;;;;;21.60;14.15;;;;;;;2.70;71.74;99156.78;5101904;28;20063;-53
2021/03/21 10:11:33;;;;;;;23.55;15.45;;;;;;;2.71;71.48;99151.59;5118014;28;20039;-54
2021/03/21 10:14:00;;;;;;;29.95;18.73;;;;;;;2.71;71.81;99149.00;5102291;28;20048;-54
2021/03/21 10:16:26;;;;;;;80.60;40.42;;;;;;;2.91;71.54;99148.91;5119106;28;20058;-54
2021/03/21 10:18:56;;;;;;;89.40;57.40;;;;;;;3.03;71.29;99150.59;5117998;28;20043;-54
2021/03/21 10:21:21;;;;;;;60.33;39.00;;;;;;;3.08;71.25;99138.47;5117936;28;20331;-54
2021/03/21 10:23:47;;;;;;;51.35;36.15;;;;;;;3.14;71.67;99140.16;5118929;28;20055;-54
2021/03/21 10:26:13;;;;;;;41.35;29.98;;;;;;;3.19;72.02;99141.88;5119001;28;20082;-54
2021/03/21 10:28:43;;;;;;;51.38;29.90;;;;;;;3.35;71.39;99144.34;5118931;27;20044;-54
2021/03/21 10:31:21;;;;;;;73.28;46.13;;;;;;;3.34;71.60;99137.47;5118004;28;20159;-54
2021/03/21 10:33:50;;;;;;;139.27;78.90;;;;;;;3.37;70.92;99145.22;5118606;28;20361;-54
2021/03/21 10:36:41;;;;;;;147.27;78.47;;;;;;;3.25;71.24;99140.94;5118495;28;20063;-54
2021/03/21 10:39:26;;;;;;;84.03;47.35;;;;;;;3.25;71.02;99139.25;5118735;28;20051;-53
2021/03/21 10:42:14;;;;;;;56.92;38.55;;;;;;;3.03;71.85;99145.41;5117661;28;20327;-54
2021/03/21 10:44:39;;;;;;;36.03;25.55;;;;;;;2.95;72.44;99137.66;5118465;28;20436;-54
2021/03/21 10:47:21;;;;;;;27.75;17.58;;;;;;;3.03;72.01;99137.66;5118552;28;20051;-54
2021/03/21 10:49:53;;;;;;;25.42;15.38;;;;;;;2.86;72.86;99137.75;5102209;28;20035;-56
2021/03/21 10:52:39;;;;;;;20.95;14.40;;;;;;;2.83;73.60;99126.53;5118253;28;20043;-56
2021/03/21 10:55:10;;;;;;;45.45;25.00;;;;;;;2.94;73.85;99122.16;5118157;28;20043;-56
2021/03/21 10:57:45;;;;;;;33.08;17.67;;;;;;;2.98;74.05;99126.47;5118018;28;20051;-54
2021/03/21 11:00:23;;;;;;;23.63;15.68;;;;;;;3.01;74.18;99116.09;5118021;28;20430;-54
2021/03/21 11:03:15;;;;;;;24.90;15.73;;;;;;;3.00;74.62;99122.13;5118290;28;20124;-54
2021/03/21 11:05:45;;;;;;;24.70;14.25;;;;;;;3.08;73.62;99124.69;5118189;28;20040;-54
2021/03/21 11:08:14;;;;;;;22.55;15.27;;;;;;;3.12;73.81;99118.59;5116843;28;20062;-56
2021/03/21 11:10:50;;;;;;;23.23;14.35;;;;;;;3.18;73.56;99114.25;5117856;28;20453;-56
2021/03/21 11:13:16;;;;;;;21.30;15.70;;;;;;;3.19;73.90;99108.22;5117967;28;20059;-56
2021/03/21 11:15:45;;;;;;;20.80;14.20;;;;;;;3.15;74.30;99106.53;5094875;28;20624;-56
2021/03/21 11:18:16;;;;;;;31.40;22.45;;;;;;;3.21;74.31;99101.28;5095666;28;20113;-54
2021/03/21 11:20:42;;;;;;;41.88;29.02;;;;;;;3.25;74.26;99090.06;5094602;28;20072;-54
2021/03/21 11:23:12;;;;;;;73.65;43.90;;;;;;;3.23;74.75;99083.19;5094341;28;20040;-55
2021/03/21 11:25:39;;;;;;;63.55;40.83;;;;;;;3.30;74.96;99082.25;5096177;28;20075;-54
2021/03/21 11:28:06;;;;;;;50.13;32.97;;;;;;;3.33;75.01;99084.84;5095877;28;20040;-54
2021/03/21 11:30:31;;;;;;;32.90;24.50;;;;;;;3.31;74.52;99077.94;5096466;28;20056;-55
2021/03/21 11:33:34;;;;;;;25.63;18.45;;;;;;;3.25;74.60;99074.53;5097065;28;20070;-55
2021/03/21 11:36:20;;;;;;;20.85;15.20;;;;;;;3.09;75.57;99075.53;5097561;28;20044;-54
2021/03/21 11:38:46;;;;;;;22.45;16.25;;;;;;;3.14;75.76;99081.50;5096913;28;20056;-54
2021/03/21 11:41:21;;;;;;;23.33;16.90;;;;;;;3.19;75.37;99078.91;5097142;28;20376;-55
2021/03/21 11:43:47;;;;;;;21.67;15.30;;;;;;;3.17;75.84;99080.63;5079637;28;20434;-54
2021/03/21 11:46:17;;;;;;;28.80;16.17;;;;;;;3.21;75.97;99079.72;5095866;28;20043;-54
2021/03/21 11:48:42;;;;;;;28.17;17.80;;;;;;;3.10;76.63;99071.19;5095996;28;20350;-54
2021/03/21 11:51:09;;;;;;;20.48;14.68;;;;;;;3.18;76.39;99072.00;5079283;28;20127;-54
2021/03/21 11:53:37;;;;;;;29.60;19.00;;;;;;;3.22;76.13;99066.81;5095819;28;20107;-55
2021/03/21 11:56:27;;;;;;;60.00;33.90;;;;;;;3.24;76.12;99066.78;5096633;28;20044;-55
2021/03/21 11:59:13;;;;;;;75.20;46.15;;;;;;;3.24;76.00;99059.88;5096587;28;20044;-55
2021/03/21 12:01:40;;;;;;;118.18;50.42;;;;;;;3.15;77.04;99059.97;5112412;28;20051;-55
2021/03/21 12:04:09;;;;;;;164.32;64.90;;;;;;;3.16;76.71;99053.91;5095796;28;20056;-55
2021/03/21 12:06:49;;;;;;;129.05;52.67;;;;;;;3.14;77.27;99041.84;5112482;28;20043;-54